Grassy Butte, North Dakota
Current Conditions -  °F | °C
As of 7:56 AM on Saturday 22 Nov 2014 (Local Time) from KDIK Reporting Station
Overcast Overcast  
Wind Chill: 29°   Ceiling: 9000
Heat Index: 34°   Visibility: 10mi
Dew Point: 25°   Wind: 6mph
Humidity: 70%   Direction: 180°S
Pressure: 29.43"   Gusts: NA
Location:  47.39°N, 103.25°W
Report Text: KDIK 221456Z AUTO 18005KT 10SM BKN090 OVC110 01/M04 A2943 RMK AO2 SLP983 T00111039 56023
Loading
Personal Weather Stations






























Interactive Weather Map New forecast layout! Learn more

10-Day Weather Forecast

Advertisements
Track Severe Weather on mobile